Time;durP1;ratioP1;P1;durP2;ratioP2;P2;SDS_P1;SDS_P2;PMS_P1;PMS_P2;Temp;Humidity;BMP_temperature;BMP_pressure;BME280_temperature;BME280_humidity;BME280_pressure;Samples;Min_cycle;Max_cycle;Signal;HPM_P1;HPM_P2
2022/09/23 00:00:46;;;;;;;12.38;10.45;;;11.60;99.90;;;;;;5116437;27;20450;-83
2022/09/23 00:03:14;;;;;;;12.57;8.80;;;11.70;99.90;;;;;;5116067;27;20042;-83
2022/09/23 00:05:39;;;;;;;12.45;8.88;;;11.70;99.90;;;;;;5100084;27;20070;-83
2022/09/23 00:08:06;;;;;;;12.90;8.65;;;11.60;99.90;;;;;;5115745;27;20066;-83
2022/09/23 00:10:36;;;;;;;12.50;8.15;;;11.60;99.90;;;;;;5082856;27;20043;-83
2022/09/23 00:13:02;;;;;;;12.70;8.45;;;11.60;99.90;;;;;;5099125;27;20092;-83
2022/09/23 00:15:30;;;;;;;12.98;8.93;;;11.60;99.90;;;;;;5119320;27;20043;-83
2022/09/23 00:17:56;;;;;;;11.43;8.18;;;11.50;99.90;;;;;;5137630;27;20049;-83
2022/09/23 00:20:21;;;;;;;13.95;8.98;;;11.50;99.90;;;;;;5135134;27;20376;-83
2022/09/23 00:22:47;;;;;;;13.65;9.18;;;11.50;99.90;;;;;;5115858;27;20727;-83
2022/09/23 00:25:12;;;;;;;16.30;8.13;;;11.40;99.90;;;;;;5116342;27;20514;-83
2022/09/23 00:27:39;;;;;;;11.75;7.88;;;11.50;99.90;;;;;;5098282;27;20031;-83
2022/09/23 00:30:07;;;;;;;11.95;8.00;;;11.40;99.90;;;;;;5116034;27;20079;-83
2022/09/23 00:32:33;;;;;;;16.10;8.55;;;11.40;99.90;;;;;;5099112;27;20047;-83
2022/09/23 00:34:59;;;;;;;13.15;8.63;;;11.40;99.90;;;;;;5133948;27;20042;-83
2022/09/23 00:37:24;;;;;;;11.80;8.68;;;11.40;99.90;;;;;;5137048;27;20035;-83
2022/09/23 00:39:50;;;;;;;12.60;8.80;;;11.30;99.90;;;;;;5136360;27;20035;-83
2022/09/23 00:42:19;;;;;;;15.68;9.02;;;11.30;99.90;;;;;;5134839;27;20061;-83
2022/09/23 00:44:56;;;;;;;13.10;8.23;;;11.30;99.90;;;;;;5134882;27;20114;-83
2022/09/23 00:47:42;;;;;;;13.13;8.65;;;11.30;99.90;;;;;;5118071;27;20711;-83
2022/09/23 00:50:27;;;;;;;11.80;7.55;;;11.30;99.90;;;;;;5113338;28;20043;-83
2022/09/23 00:52:55;;;;;;;12.40;8.30;;;11.30;99.90;;;;;;5113507;28;20035;-82
2022/09/23 00:55:53;;;;;;;12.57;8.40;;;11.20;99.90;;;;;;5114753;28;20502;-83
2022/09/23 00:58:24;;;;;;;10.90;8.00;;;11.20;99.90;;;;;;5113565;28;20083;-83
2022/09/23 01:00:49;;;;;;;13.38;9.98;;;11.10;99.90;;;;;;5097539;28;20039;-83
2022/09/23 01:03:15;;;;;;;11.80;8.18;;;11.10;99.90;;;;;;5113646;28;20091;-83
2022/09/23 01:05:41;;;;;;;11.55;8.18;;;11.10;99.90;;;;;;5114485;28;20043;-83
2022/09/23 01:08:11;;;;;;;11.10;7.63;;;11.00;99.90;;;;;;5113424;28;20038;-83
2022/09/23 01:10:58;;;;;;;11.68;7.60;;;10.90;99.90;;;;;;5114344;28;20194;-83
2022/09/23 01:13:50;;;;;;;12.48;9.63;;;10.90;99.90;;;;;;5113857;27;20035;-83
2022/09/23 01:16:28;;;;;;;12.18;8.13;;;10.80;99.90;;;;;;5114515;28;20519;-83
2022/09/23 01:19:20;;;;;;;11.50;7.28;;;10.70;99.90;;;;;;5114399;27;20039;-83
2022/09/23 01:21:56;;;;;;;11.63;7.43;;;10.70;99.90;;;;;;5096464;28;20043;-82
2022/09/23 01:24:40;;;;;;;11.50;8.27;;;10.70;99.90;;;;;;5096554;27;20103;-83
2022/09/23 01:27:39;;;;;;;11.80;7.90;;;10.70;99.90;;;;;;5096559;28;20039;-83
2022/09/23 01:30:17;;;;;;;11.43;8.30;;;10.70;99.90;;;;;;5096593;28;20043;-83
2022/09/23 01:33:07;;;;;;;12.70;8.20;;;10.70;99.90;;;;;;5112947;28;20122;-83
2022/09/23 01:35:36;;;;;;;12.07;8.00;;;10.70;99.90;;;;;;5097163;28;20038;-83
2022/09/23 01:38:33;;;;;;;13.73;9.27;;;10.70;99.90;;;;;;5097212;28;20027;-83
2022/09/23 01:41:32;;;;;;;11.02;7.38;;;10.70;99.90;;;;;;5078158;27;1028332;-83
2022/09/23 01:44:09;;;;;;;12.40;8.07;;;10.70;99.90;;;;;;5114199;27;20054;-83
2022/09/23 01:46:47;;;;;;;11.70;8.05;;;10.70;99.90;;;;;;5114716;27;20039;-82
2022/09/23 01:49:24;;;;;;;13.43;8.88;;;10.70;99.90;;;;;;5098020;27;20138;-83
2022/09/23 01:52:15;;;;;;;11.75;8.48;;;10.70;99.90;;;;;;5097063;27;20453;-82
2022/09/23 01:55:11;;;;;;;11.43;8.35;;;10.70;99.90;;;;;;5114729;27;20035;-83
2022/09/23 01:57:41;;;;;;;12.05;7.97;;;10.70;99.90;;;;;;5114172;27;20043;-83
2022/09/23 02:00:18;;;;;;;11.52;7.78;;;10.70;99.90;;;;;;5115110;27;20066;-83
2022/09/23 02:02:48;;;;;;;12.02;8.38;;;10.70;99.90;;;;;;5113938;27;20050;-83
2022/09/23 02:05:20;;;;;;;12.75;8.32;;;10.60;99.90;;;;;;5114195;27;20059;-83
2022/09/23 02:07:53;;;;;;;11.18;8.43;;;10.60;99.90;;;;;;5114423;27;20037;-83
2022/09/23 02:10:34;;;;;;;;;;;10.60;99.90;;;;;;5096662;27;20035;-83
2022/09/23 02:13:05;;;;;;;12.88;8.57;;;10.60;99.90;;;;;;5113456;27;20397;-83
2022/09/23 02:15:40;;;;;;;11.48;7.65;;;10.50;99.90;;;;;;5097169;27;20027;-83
2022/09/23 02:18:13;;;;;;;11.15;7.60;;;10.60;99.90;;;;;;5114496;27;20035;-83
2022/09/23 02:20:39;;;;;;;;;;;10.60;99.90;;;;;;5097762;27;20497;-82
2022/09/23 02:23:21;;;;;;;12.32;7.72;;;10.60;99.90;;;;;;5112931;27;19922;-83
2022/09/23 02:26:06;;;;;;;13.82;7.47;;;10.50;99.90;;;;;;5114308;27;20046;-83
2022/09/23 02:28:42;;;;;;;13.00;8.00;;;10.50;99.90;;;;;;5113004;27;20126;-83
2022/09/23 02:31:29;;;;;;;11.82;8.25;;;10.50;99.90;;;;;;5113445;27;20050;-83
2022/09/23 02:34:05;;;;;;;12.90;8.18;;;10.50;99.90;;;;;;5113049;27;20035;-83
2022/09/23 02:36:39;;;;;;;11.73;8.43;;;10.50;99.90;;;;;;5114078;27;20069;-83
2022/09/23 02:39:09;;;;;;;11.32;7.57;;;10.50;99.90;;;;;;5114307;27;20038;-83
2022/09/23 02:41:43;;;;;;;11.98;8.15;;;10.40;99.90;;;;;;5113436;27;20046;-82
2022/09/23 02:44:13;;;;;;;12.13;8.55;;;10.40;99.90;;;;;;5096480;27;20039;-82
2022/09/23 02:46:42;;;;;;;11.02;8.07;;;10.40;99.90;;;;;;5108877;27;20039;-83
2022/09/23 02:49:16;;;;;;;10.30;7.38;;;10.40;99.90;;;;;;5133893;27;20035;-82
2022/09/23 02:51:43;;;;;;;11.25;7.72;;;10.40;99.90;;;;;;5116260;27;20038;-83
2022/09/23 02:54:13;;;;;;;12.23;8.35;;;10.30;99.90;;;;;;5133876;27;20403;-82
2022/09/23 02:56:40;;;;;;;11.30;7.78;;;10.30;99.90;;;;;;5117584;27;20035;-82
2022/09/23 02:59:07;;;;;;;12.40;7.85;;;10.30;99.90;;;;;;5133895;27;20121;-83
2022/09/23 03:01:51;;;;;;;12.32;8.13;;;10.30;99.90;;;;;;5117050;27;20043;-83
2022/09/23 03:04:26;;;;;;;12.65;7.95;;;10.30;99.90;;;;;;5124375;27;20050;-83
2022/09/23 03:07:13;;;;;;;11.13;7.80;;;10.30;99.90;;;;;;5096341;27;20050;-83
2022/09/23 03:09:53;;;;;;;13.20;7.20;;;10.20;99.90;;;;;;5096130;27;20087;-82
2022/09/23 03:12:34;;;;;;;11.13;6.75;;;10.20;99.90;;;;;;5112018;27;20046;-82
2022/09/23 03:15:45;;;;;;;11.15;7.80;;;10.20;99.90;;;;;;5113061;27;20052;-83
2022/09/23 03:18:19;;;;;;;11.75;7.25;;;10.20;99.90;;;;;;5131428;27;20035;-82
2022/09/23 03:20:50;;;;;;;11.75;7.00;;;10.10;99.90;;;;;;5113607;27;20714;-82
2022/09/23 03:23:22;;;;;;;13.60;7.35;;;10.10;99.90;;;;;;5112870;27;20663;-83
2022/09/23 03:25:49;;;;;;;11.40;7.68;;;10.10;99.90;;;;;;5112894;27;20047;-83
2022/09/23 03:28:19;;;;;;;10.18;6.53;;;10.10;99.90;;;;;;5111440;27;20054;-83
2022/09/23 03:30:45;;;;;;;12.18;7.80;;;10.10;99.90;;;;;;5112401;27;20047;-82
2022/09/23 03:33:14;;;;;;;12.55;7.80;;;10.10;99.90;;;;;;5095332;28;20603;-83
2022/09/23 03:38:44;;;;;;;12.13;7.18;;;10.10;99.90;;;;;;5113555;28;20051;-83
2022/09/23 03:41:15;;;;;;;12.23;7.63;;;10.00;99.90;;;;;;5112195;28;20043;-82
2022/09/23 03:43:43;;;;;;;10.55;7.47;;;10.00;99.90;;;;;;5112989;28;20035;-82
2022/09/23 03:46:09;;;;;;;12.30;8.10;;;10.00;99.90;;;;;;5112741;28;20499;-83
2022/09/23 03:48:35;;;;;;;12.25;8.05;;;10.00;99.90;;;;;;5095466;28;20722;-82
2022/09/23 03:51:18;;;;;;;11.77;7.70;;;10.00;99.90;;;;;;5112158;28;20043;-83
2022/09/23 03:53:43;;;;;;;11.00;7.38;;;10.00;99.90;;;;;;5112376;27;20046;-83
2022/09/23 03:56:10;;;;;;;11.38;7.43;;;9.90;99.90;;;;;;5095607;28;20043;-82
2022/09/23 03:58:36;;;;;;;11.27;7.93;;;9.90;99.90;;;;;;5113167;27;20039;-82
2022/09/23 04:01:02;;;;;;;12.30;8.52;;;9.90;99.90;;;;;;5112917;28;20054;-83
2022/09/23 04:03:28;;;;;;;12.02;7.68;;;9.90;99.90;;;;;;5095824;28;20096;-82
2022/09/23 04:05:54;;;;;;;10.80;7.55;;;9.90;99.90;;;;;;5111824;27;20035;-83
2022/09/23 04:08:20;;;;;;;10.93;8.05;;;9.90;99.90;;;;;;5095829;28;20038;-82
2022/09/23 04:10:45;;;;;;;11.23;7.57;;;9.90;99.90;;;;;;5111875;28;20117;-82
2022/09/23 04:13:11;;;;;;;13.07;7.90;;;9.90;99.90;;;;;;5111917;28;20512;-82
2022/09/23 04:15:37;;;;;;;13.63;7.72;;;9.90;99.90;;;;;;5116949;27;20423;-82
2022/09/23 04:18:02;;;;;;;11.77;7.90;;;9.90;99.90;;;;;;5101957;28;20030;-82
2022/09/23 04:20:29;;;;;;;11.05;7.43;;;9.80;99.90;;;;;;5113015;28;20489;-82
2022/09/23 04:22:55;;;;;;;12.05;7.10;;;9.80;99.90;;;;;;5095600;28;20043;-82
2022/09/23 04:25:21;;;;;;;13.43;8.25;;;9.80;99.90;;;;;;5111549;28;20043;-82
2022/09/23 04:27:46;;;;;;;12.10;7.32;;;9.80;99.90;;;;;;5112250;28;20043;-82
2022/09/23 04:30:12;;;;;;;12.90;7.18;;;9.80;99.90;;;;;;5094773;28;20075;-82
2022/09/23 04:32:38;;;;;;;11.77;7.78;;;9.70;99.90;;;;;;5095206;27;20085;-82
2022/09/23 04:35:04;;;;;;;10.73;7.53;;;9.70;99.90;;;;;;5115221;27;20524;-82
2022/09/23 04:37:30;;;;;;;9.73;6.75;;;9.70;99.90;;;;;;5098722;27;20039;-82
2022/09/23 04:39:55;;;;;;;11.48;6.95;;;9.70;99.90;;;;;;5116675;27;20035;-82
2022/09/23 04:42:21;;;;;;;10.65;7.00;;;9.70;99.90;;;;;;5115427;27;20031;-82
2022/09/23 04:44:47;;;;;;;12.57;7.82;;;9.70;99.90;;;;;;5115915;27;20043;-82
2022/09/23 04:47:12;;;;;;;11.82;7.50;;;9.70;99.90;;;;;;5115756;27;20043;-82
2022/09/23 04:49:38;;;;;;;12.38;7.13;;;9.70;99.90;;;;;;5106727;27;20126;-82
2022/09/23 04:52:04;;;;;;;10.90;7.68;;;9.60;99.90;;;;;;5136236;27;20126;-82
2022/09/23 04:54:30;;;;;;;10.32;6.93;;;9.60;99.90;;;;;;5135229;27;20066;-82
2022/09/23 04:56:56;;;;;;;11.88;7.18;;;9.60;99.90;;;;;;5119204;27;20041;-82
2022/09/23 04:59:22;;;;;;;11.35;7.07;;;9.60;99.90;;;;;;5136639;27;20403;-83
2022/09/23 05:01:50;;;;;;;10.73;7.10;;;9.60;99.90;;;;;;5136372;27;20042;-82
2022/09/23 05:04:16;;;;;;;13.20;7.65;;;9.60;99.90;;;;;;5136653;27;20046;-83
2022/09/23 05:06:43;;;;;;;10.45;6.95;;;9.60;99.90;;;;;;5122113;27;20034;-83
2022/09/23 05:09:15;;;;;;;11.30;6.85;;;9.60;99.90;;;;;;5115493;27;20051;-82
2022/09/23 05:11:40;;;;;;;11.65;6.63;;;9.50;99.90;;;;;;5129790;27;20476;-83
2022/09/23 05:14:06;;;;;;;13.55;7.57;;;9.50;99.90;;;;;;5118322;27;20541;-82
2022/09/23 05:16:31;;;;;;;11.35;7.00;;;9.50;99.90;;;;;;5133252;27;20035;-82
2022/09/23 05:18:58;;;;;;;11.30;7.10;;;9.50;99.90;;;;;;5134521;27;20031;-83
2022/09/23 05:21:27;;;;;;;10.77;7.30;;;9.50;99.90;;;;;;5135168;27;20047;-83
2022/09/23 05:23:55;;;;;;;13.82;7.30;;;9.50;99.90;;;;;;5121818;27;20046;-82
2022/09/23 05:26:24;;;;;;;11.82;7.45;;;9.50;99.90;;;;;;5114245;27;20043;-83
2022/09/23 05:28:49;;;;;;;13.18;7.55;;;9.50;99.90;;;;;;5114410;27;20051;-82
2022/09/23 05:31:18;;;;;;;11.18;7.43;;;9.50;99.90;;;;;;5113471;27;20116;-82
2022/09/23 05:33:47;;;;;;;11.07;6.55;;;9.50;99.90;;;;;;5097346;27;20039;-83
2022/09/23 05:36:15;;;;;;;11.95;7.28;;;9.50;99.90;;;;;;5114135;27;20374;-82
2022/09/23 05:38:41;;;;;;;13.15;8.02;;;9.40;99.90;;;;;;5105013;27;20507;-82
2022/09/23 05:41:09;;;;;;;11.98;7.10;;;9.50;99.90;;;;;;5117042;27;20039;-82
2022/09/23 05:43:36;;;;;;;12.38;8.27;;;9.40;99.90;;;;;;5121553;27;20411;-82
2022/09/23 05:46:08;;;;;;;10.80;7.38;;;9.40;99.90;;;;;;5095483;27;20043;-83
2022/09/23 05:48:35;;;;;;;11.48;7.57;;;9.40;99.90;;;;;;5113287;27;20057;-83
2022/09/23 05:51:01;;;;;;;11.68;7.28;;;9.40;99.90;;;;;;5113479;27;20508;-82
2022/09/23 05:53:28;;;;;;;12.10;7.75;;;9.40;99.90;;;;;;5113639;27;20023;-83
2022/09/23 05:55:57;;;;;;;12.27;7.75;;;9.40;99.90;;;;;;5113903;27;20511;-83
2022/09/23 05:58:23;;;;;;;12.02;7.95;;;9.40;99.90;;;;;;5113637;27;20065;-82
2022/09/23 06:00:50;;;;;;;18.30;7.80;;;9.40;99.90;;;;;;5114425;27;20498;-82
2022/09/23 06:03:19;;;;;;;12.20;7.35;;;9.50;99.90;;;;;;5096837;27;20047;-83
2022/09/23 06:05:46;;;;;;;12.00;7.85;;;9.40;99.90;;;;;;5113374;27;20065;-82
2022/09/23 06:08:12;;;;;;;11.20;7.55;;;9.40;99.90;;;;;;5113994;27;20064;-82
2022/09/23 06:10:43;;;;;;;15.18;8.45;;;9.50;99.90;;;;;;5111821;27;20031;-82
2022/09/23 06:13:09;;;;;;;11.18;7.03;;;9.50;99.90;;;;;;5096686;27;20038;-83
2022/09/23 06:15:36;;;;;;;12.15;8.15;;;9.50;99.90;;;;;;5126232;27;20067;-83
2022/09/23 06:18:02;;;;;;;10.95;6.93;;;9.60;99.90;;;;;;5120797;27;20126;-83
2022/09/23 06:20:27;;;;;;;10.50;7.32;;;9.60;99.90;;;;;;5114181;27;20122;-83
2022/09/23 06:22:53;;;;;;;13.25;8.38;;;9.60;99.90;;;;;;5098935;27;20039;-83
2022/09/23 06:25:20;;;;;;;11.48;7.85;;;9.70;99.90;;;;;;5095673;27;20130;-82
2022/09/23 06:27:55;;;;;;;12.65;8.32;;;9.70;99.90;;;;;;5113450;27;20092;-82
2022/09/23 06:30:22;;;;;;;13.80;8.43;;;9.80;99.90;;;;;;5113150;27;20074;-83
2022/09/23 06:32:51;;;;;;;14.32;8.32;;;9.80;99.90;;;;;;5112602;27;20035;-83
2022/09/23 06:35:22;;;;;;;12.30;7.45;;;9.90;99.90;;;;;;5112695;27;20058;-83
2022/09/23 06:37:48;;;;;;;13.65;7.70;;;9.90;99.90;;;;;;5113671;27;20050;-83
2022/09/23 06:40:14;;;;;;;12.70;8.02;;;10.00;99.90;;;;;;5102196;27;20400;-83
2022/09/23 06:42:41;;;;;;;13.55;8.10;;;10.10;99.90;;;;;;5113201;27;20492;-83
2022/09/23 06:45:10;;;;;;;11.25;7.35;;;10.10;99.90;;;;;;5113471;27;20043;-83
2022/09/23 06:47:36;;;;;;;14.65;8.88;;;10.20;99.90;;;;;;5094795;27;20035;-83
2022/09/23 06:50:02;;;;;;;14.57;7.65;;;10.20;99.90;;;;;;5096178;27;20100;-82
2022/09/23 06:52:28;;;;;;;14.27;8.38;;;10.30;99.90;;;;;;5120876;27;20403;-83
2022/09/23 06:54:53;;;;;;;13.30;8.50;;;10.30;99.90;;;;;;5112866;27;20042;-82
2022/09/23 06:57:19;;;;;;;14.48;8.70;;;10.40;99.90;;;;;;5112398;27;20038;-82
2022/09/23 06:59:44;;;;;;;11.63;7.97;;;10.40;99.90;;;;;;5112595;27;21223;-83
2022/09/23 07:02:11;;;;;;;13.23;8.18;;;10.40;99.90;;;;;;5112743;27;20032;-82
2022/09/23 07:04:36;;;;;;;12.75;8.35;;;10.50;99.90;;;;;;5112826;27;20103;-82
2022/09/23 07:07:02;;;;;;;13.40;8.13;;;10.50;99.90;;;;;;5095672;27;20077;-83
2022/09/23 07:09:27;;;;;;;14.13;8.10;;;10.60;99.90;;;;;;5112667;27;20129;-83
2022/09/23 07:11:53;;;;;;;13.43;8.13;;;10.60;99.90;;;;;;5111221;27;20031;-83
2022/09/23 07:14:19;;;;;;;12.68;8.05;;;10.60;99.90;;;;;;5112621;27;20035;-83
2022/09/23 07:16:47;;;;;;;15.77;8.68;;;10.70;99.90;;;;;;5095268;27;20042;-83
2022/09/23 07:19:13;;;;;;;17.90;8.65;;;10.70;99.90;;;;;;5112424;27;20055;-83
2022/09/23 07:21:39;;;;;;;12.75;8.85;;;10.80;99.90;;;;;;5096065;28;20120;-82
2022/09/23 07:24:05;;;;;;;14.52;8.43;;;10.80;99.90;;;;;;5111611;27;20544;-83
2022/09/23 07:26:32;;;;;;;13.23;8.57;;;10.80;99.90;;;;;;5112287;27;20126;-82
2022/09/23 07:29:03;;;;;;;15.30;7.75;;;10.90;99.90;;;;;;5111671;27;20050;-82
2022/09/23 07:31:31;;;;;;;13.50;7.72;;;10.90;99.90;;;;;;5110587;28;20043;-82
2022/09/23 07:33:59;;;;;;;13.02;8.75;;;11.00;99.90;;;;;;5112351;28;20069;-82
2022/09/23 07:36:27;;;;;;;17.83;9.15;;;11.10;99.90;;;;;;5111546;28;20047;-83
2022/09/23 07:39:01;;;;;;;13.07;8.68;;;11.10;99.90;;;;;;5112063;28;20578;-83
2022/09/23 07:41:27;;;;;;;14.07;8.07;;;11.20;99.90;;;;;;5112308;28;20047;-82
2022/09/23 07:43:57;;;;;;;15.35;8.80;;;11.20;99.90;;;;;;5111089;28;20088;-83
2022/09/23 07:46:24;;;;;;;13.52;8.93;;;11.30;99.90;;;;;;5095390;28;20389;-83
2022/09/23 07:48:51;;;;;;;14.43;8.85;;;11.30;99.90;;;;;;5095056;28;20633;-82
2022/09/23 07:51:35;;;;;;;14.43;10.65;;;11.40;99.90;;;;;;5115585;28;20043;-83
2022/09/23 07:54:00;;;;;;;;;;;11.60;99.90;;;;;;5095284;28;20035;-83
2022/09/23 07:56:28;;;;;;;13.27;7.80;;;11.60;99.90;;;;;;5111375;27;19975;-83
2022/09/23 07:59:04;;;;;;;14.45;8.45;;;11.60;99.90;;;;;;5112482;28;20035;-83
2022/09/23 08:01:32;;;;;;;14.82;8.35;;;11.70;99.90;;;;;;5112103;28;20042;-82
2022/09/23 08:04:04;;;;;;;14.18;10.45;;;11.70;99.90;;;;;;5111866;28;20035;-83
2022/09/23 08:06:30;;;;;;;13.88;8.90;;;11.90;99.90;;;;;;5111798;28;20039;-83
2022/09/23 08:08:57;;;;;;;15.20;8.00;;;11.90;99.90;;;;;;5112879;27;20050;-83
2022/09/23 08:11:24;;;;;;;12.93;8.32;;;12.00;99.90;;;;;;5116005;27;20084;-83
2022/09/23 08:13:50;;;;;;;13.80;10.63;;;12.00;99.90;;;;;;5115996;27;20046;-83
2022/09/23 08:16:16;;;;;;;12.70;8.35;;;12.10;99.90;;;;;;5114091;27;20023;-83
2022/09/23 08:18:45;;;;;;;13.40;8.23;;;12.20;99.90;;;;;;5115951;27;20051;-83
2022/09/23 08:21:11;;;;;;;12.23;7.35;;;12.20;99.90;;;;;;5115682;27;20576;-83
2022/09/23 08:23:37;;;;;;;13.57;10.25;;;12.20;99.90;;;;;;5115824;27;20054;-83
2022/09/23 08:26:05;;;;;;;15.75;8.02;;;12.30;99.90;;;;;;5099299;27;20510;-83
2022/09/23 08:28:34;;;;;;;16.33;8.13;;;12.40;99.90;;;;;;5114831;27;20052;-83
2022/09/23 08:31:00;;;;;;;13.88;10.02;;;12.40;99.90;;;;;;5114769;27;20507;-83
2022/09/23 08:33:25;;;;;;;12.38;7.65;;;12.50;99.90;;;;;;5098267;27;20027;-83
2022/09/23 08:35:56;;;;;;;14.40;8.18;;;12.60;99.90;;;;;;5098767;27;20155;-83
2022/09/23 08:38:22;;;;;;;13.50;9.48;;;12.60;99.90;;;;;;5097616;27;20038;-83
2022/09/23 08:40:49;;;;;;;12.38;7.68;;;12.70;99.90;;;;;;5114852;27;20047;-83
2022/09/23 08:43:27;;;;;;;16.63;8.57;;;12.80;99.90;;;;;;5098527;27;20062;-83
2022/09/23 08:45:56;;;;;;;14.35;9.95;;;12.80;99.90;;;;;;5098201;27;20065;-83
2022/09/23 08:48:43;;;;;;;14.45;7.93;;;12.90;99.90;;;;;;5115609;27;20062;-83
2022/09/23 08:51:22;;;;;;;12.07;7.72;;;12.90;99.90;;;;;;5114033;27;20481;-83
2022/09/23 08:53:48;;;;;;;11.73;7.57;;;13.00;99.90;;;;;;5097850;27;20076;-83
2022/09/23 08:56:21;;;;;;;13.18;8.18;;;13.00;99.90;;;;;;5097654;27;20167;-83
2022/09/23 08:59:01;;;;;;;12.95;7.18;;;13.10;99.90;;;;;;5114673;27;20407;-83
2022/09/23 09:01:44;;;;;;;13.98;10.20;;;13.10;99.90;;;;;;5098009;27;20498;-83
2022/09/23 09:04:26;;;;;;;13.43;8.23;;;13.20;99.90;;;;;;5114794;27;20039;-83
2022/09/23 09:07:07;;;;;;;12.88;9.65;;;13.20;99.90;;;;;;5114344;27;20042;-83
2022/09/23 09:09:35;;;;;;;12.60;7.78;;;13.30;99.90;;;;;;5097812;27;20049;-83
2022/09/23 09:12:09;;;;;;;14.30;9.95;;;13.30;99.90;;;;;;5114788;27;20506;-83
2022/09/23 09:14:50;;;;;;;11.98;8.15;;;13.40;99.90;;;;;;5114606;27;20062;-83
2022/09/23 09:17:54;;;;;;;12.98;8.35;;;13.50;99.90;;;;;;5113903;27;20088;-83
2022/09/23 09:20:38;;;;;;;;;;;13.50;99.90;;;;;;5100931;27;20104;-83
2022/09/23 09:23:16;;;;;;;14.77;7.97;;;13.50;99.90;;;;;;5113562;27;19915;-83
2022/09/23 09:25:51;;;;;;;13.52;8.88;;;13.60;99.90;;;;;;5115092;27;20039;-83
2022/09/23 09:28:29;;;;;;;11.73;9.45;;;13.70;99.90;;;;;;5113823;27;20039;-83
2022/09/23 09:31:36;;;;;;;13.30;8.57;;;13.80;99.90;;;;;;5114152;27;20407;-83
2022/09/23 09:34:19;;;;;;;13.85;9.90;;;13.80;99.90;;;;;;5111739;27;20130;-83
2022/09/23 09:37:12;;;;;;;11.98;7.38;;;14.00;99.90;;;;;;5097274;27;20075;-83
2022/09/23 09:39:38;;;;;;;14.02;9.20;;;14.00;99.90;;;;;;5113564;27;20043;-83
2022/09/23 09:42:06;;;;;;;13.82;10.00;;;14.10;99.90;;;;;;5114408;27;20042;-83
2022/09/23 09:44:37;;;;;;;15.13;8.15;;;14.20;99.90;;;;;;5096914;27;20108;-83
2022/09/23 09:47:30;;;;;;;14.27;9.60;;;14.30;99.90;;;;;;5113791;27;20039;-83
2022/09/23 09:50:05;;;;;;;13.23;7.80;;;14.30;99.90;;;;;;5114548;27;20039;-83
2022/09/23 09:52:31;;;;;;;14.25;9.20;;;14.40;99.90;;;;;;5113031;27;20039;-83
2022/09/23 09:55:12;;;;;;;12.98;7.82;;;14.50;99.90;;;;;;5097325;27;20043;-83
2022/09/23 09:57:49;;;;;;;13.00;9.23;;;14.50;99.90;;;;;;5095917;27;20035;-83
2022/09/23 10:00:20;;;;;;;13.82;9.80;;;14.70;99.90;;;;;;5097228;27;20102;-83
2022/09/23 10:02:55;;;;;;;13.15;8.48;;;14.80;99.90;;;;;;5096532;27;20042;-83
2022/09/23 10:05:26;;;;;;;11.73;9.02;;;14.80;99.90;;;;;;5113953;27;20039;-83
2022/09/23 10:07:53;;;;;;;12.88;9.57;;;14.90;99.90;;;;;;5113473;27;20512;-83
2022/09/23 10:10:24;;;;;;;11.05;8.90;;;15.00;99.90;;;;;;5113440;27;20118;-83
2022/09/23 10:12:51;;;;;;;14.30;9.52;;;15.10;99.90;;;;;;5113546;27;20545;-83
2022/09/23 10:15:40;;;;;;;10.98;8.13;;;15.10;99.90;;;;;;5096340;27;20035;-83
2022/09/23 10:18:20;;;;;;;15.80;9.10;;;15.20;99.90;;;;;;5112808;27;20134;-82
2022/09/23 10:20:46;;;;;;;13.80;8.65;;;15.20;99.90;;;;;;5114007;27;20508;-83
2022/09/23 10:23:20;;;;;;;12.95;7.90;;;15.20;99.90;;;;;;5101831;27;20466;-82
2022/09/23 10:25:59;;;;;;;12.77;9.27;;;15.20;99.90;;;;;;5134357;27;20054;-81
2022/09/23 10:28:46;;;;;;;12.02;7.90;;;15.20;99.90;;;;;;5114850;27;20039;-81
2022/09/23 10:31:31;;;;;;;12.25;8.43;;;15.20;99.90;;;;;;5095115;28;20122;-81
2022/09/23 10:34:03;;;;;;;12.27;8.73;;;15.30;99.90;;;;;;5113215;27;20031;-81
2022/09/23 10:36:32;;;;;;;15.07;7.68;;;15.30;99.90;;;;;;5112174;27;20045;-82
2022/09/23 10:48:29;;;;;;;11.70;9.43;;;15.40;99.90;;;;;;5112497;27;20072;-81
2022/09/23 10:50:56;;;;;;;12.45;8.02;;;15.40;99.90;;;;;;5112619;27;20568;-81
2022/09/23 10:53:41;;;;;;;10.93;8.35;;;15.40;99.90;;;;;;5121006;27;20067;-81
2022/09/23 10:56:26;;;;;;;12.88;7.63;;;15.50;99.90;;;;;;5112823;27;20041;-81
2022/09/23 10:59:09;;;;;;;12.55;8.60;;;15.50;99.90;;;;;;5093764;27;20110;-81
2022/09/23 11:02:07;;;;;;;12.43;8.95;;;15.60;99.90;;;;;;5113573;28;20062;-81
2022/09/23 11:04:55;;;;;;;11.77;8.38;;;15.70;99.90;;;;;;5111899;27;20043;-81
2022/09/23 11:07:48;;;;;;;11.80;8.82;;;15.70;99.90;;;;;;5112789;27;20043;-81
2022/09/23 11:10:36;;;;;;;12.65;8.60;;;15.80;99.90;;;;;;5112241;27;20043;-81
2022/09/23 11:13:26;;;;;;;11.52;8.52;;;15.80;99.90;;;;;;5101451;27;20035;-81
2022/09/23 11:16:16;;;;;;;12.90;7.53;;;15.90;99.90;;;;;;5125120;27;20454;-81
2022/09/23 11:18:54;;;;;;;11.88;9.25;;;15.90;99.90;;;;;;5114603;27;20479;-81
2022/09/23 11:21:43;;;;;;;12.32;7.88;;;16.00;99.90;;;;;;5115560;27;20086;-82
2022/09/23 11:24:41;;;;;;;12.25;8.30;;;16.00;99.90;;;;;;5095556;28;20095;-82
2022/09/23 11:27:29;;;;;;;12.90;7.35;;;16.10;99.90;;;;;;5110816;27;20038;-82
2022/09/23 11:30:12;;;;;;;10.93;8.45;;;16.10;99.90;;;;;;5094460;28;20046;-82
2022/09/23 11:33:01;;;;;;;13.25;8.68;;;16.20;99.90;;;;;;5112528;27;20118;-81
2022/09/23 11:35:54;;;;;;;12.38;8.10;;;16.20;99.90;;;;;;5111444;28;20088;-81
2022/09/23 11:38:25;;;;;;;12.10;8.40;;;16.20;99.90;;;;;;5112754;28;20031;-81
2022/09/23 11:40:57;;;;;;;12.25;7.90;;;16.20;99.90;;;;;;5095154;28;20043;-81
2022/09/23 11:43:27;;;;;;;13.45;7.57;;;16.30;99.90;;;;;;5114983;27;20043;-81
2022/09/23 11:46:08;;;;;;;13.75;8.90;;;16.30;99.90;;;;;;5099809;27;20039;-81
2022/09/23 11:48:44;;;;;;;12.80;8.57;;;16.40;99.90;;;;;;5116655;27;20413;-81
2022/09/23 11:51:18;;;;;;;12.48;8.98;;;16.40;99.90;;;;;;5099412;27;20035;-81
2022/09/23 11:53:48;;;;;;;13.68;9.13;;;16.40;99.90;;;;;;5099252;27;20035;-81
2022/09/23 11:56:22;;;;;;;11.35;8.40;;;16.50;99.90;;;;;;5100151;27;20039;-81
2022/09/23 11:58:59;;;;;;;12.38;9.07;;;16.50;99.90;;;;;;5116465;27;20050;-81
2022/09/23 12:01:56;;;;;;;12.95;8.75;;;16.50;99.90;;;;;;5099316;27;20040;-81
2022/09/23 12:04:34;;;;;;;12.02;8.02;;;16.60;99.90;;;;;;5100162;27;20533;-81
2022/09/23 12:07:03;;;;;;;14.57;9.05;;;16.60;99.90;;;;;;5115864;27;20042;-81
2022/09/23 12:09:45;;;;;;;13.02;8.70;;;16.60;99.90;;;;;;5100293;27;20138;-81
2022/09/23 12:12:25;;;;;;;12.27;8.35;;;16.70;99.90;;;;;;5099054;27;20108;-81
2022/09/23 12:15:21;;;;;;;13.73;7.80;;;16.70;99.90;;;;;;5099802;27;20104;-81
2022/09/23 12:18:00;;;;;;;12.55;8.23;;;16.60;99.90;;;;;;5098710;27;20031;-81
2022/09/23 12:20:55;;;;;;;12.35;8.02;;;16.70;99.90;;;;;;5115878;27;20039;-81
2022/09/23 12:23:43;;;;;;;12.07;8.30;;;16.70;99.90;;;;;;5117043;27;20050;-81
2022/09/23 12:26:16;;;;;;;12.68;7.93;;;16.80;99.90;;;;;;5116190;27;20099;-81
2022/09/23 12:28:45;;;;;;;11.80;8.00;;;16.80;99.90;;;;;;5115895;27;20409;-81
2022/09/23 12:31:14;;;;;;;11.82;7.78;;;16.80;99.90;;;;;;5115773;27;20087;-81
2022/09/23 12:33:46;;;;;;;12.02;8.00;;;16.80;99.90;;;;;;5099355;27;20039;-81
2022/09/23 12:36:12;;;;;;;12.43;8.25;;;16.80;99.90;;;;;;5099172;27;20602;-81
2022/09/23 12:38:52;;;;;;;11.93;8.05;;;16.80;99.90;;;;;;5105184;27;20121;-82
2022/09/23 12:41:36;;;;;;;12.60;8.65;;;16.90;99.90;;;;;;5118595;27;20411;-82
2022/09/23 12:44:14;;;;;;;11.82;8.98;;;16.90;99.90;;;;;;5110817;27;20039;-82
2022/09/23 12:46:42;;;;;;;13.98;8.63;;;16.90;99.90;;;;;;5115650;27;20099;-82
2022/09/23 12:49:27;;;;;;;14.13;8.68;;;16.90;99.90;;;;;;5115165;27;20043;-82
2022/09/23 12:52:15;;;;;;;15.98;8.88;;;16.90;99.90;;;;;;5097204;27;20130;-81
2022/09/23 12:54:43;;;;;;;14.55;8.63;;;16.90;99.90;;;;;;5114607;27;20042;-82
2022/09/23 12:57:11;;;;;;;12.65;8.38;;;16.90;99.90;;;;;;5097204;27;20083;-81
2022/09/23 12:59:58;;;;;;;13.48;8.65;;;16.90;99.90;;;;;;5115211;27;20046;-82
2022/09/23 13:02:30;;;;;;;13.48;8.98;;;16.90;99.90;;;;;;5097924;27;20030;-82
2022/09/23 13:08:11;;;;;;;13.52;7.70;;;17.00;99.90;;;;;;5117810;27;20476;-81
2022/09/23 13:10:54;;;;;;;12.65;7.65;;;16.90;99.90;;;;;;5118484;27;20038;-82
2022/09/23 13:13:37;;;;;;;11.65;7.80;;;16.90;99.90;;;;;;5115312;27;20066;-82
2022/09/23 13:16:21;;;;;;;;;;;16.90;99.90;;;;;;5114707;27;20032;-82
2022/09/23 13:18:47;;;;;;;11.95;7.53;;;16.90;99.90;;;;;;5113856;27;19915;-81
2022/09/23 13:21:38;;;;;;;16.13;7.95;;;17.00;99.90;;;;;;5114011;27;20103;-82
2022/09/23 13:24:13;;;;;;;11.82;7.78;;;17.00;99.90;;;;;;5098140;27;20091;-82
2022/09/23 13:26:47;;;;;;;12.52;7.88;;;17.00;99.90;;;;;;5113347;27;20573;-82